Terminal Aerodrome Forecast
Issued by NWS

Home | Current Version | Previous Version | Text Only | Print | Product List | Glossary On
Versions: 1 2 3 4 5 6 7 8 9 10 11 12 13 14 15 16 17 18 19 20 21 22 23
669
FTUS43 KPAH 200520
TAFCGI
TAF
KCGI 200520Z 2006/2106 VRB03KT P6SM BKN110 PROB30 2018/2024 4SM
      -TSRA BKN040CB
     FM210300 VRB04KT P6SM SCT035 BKN100 PROB30 2103/2106 4SM -TSRA
      BKN035CB=

USA.gov is the U.S. government's official web portal to all federal, state and local government web resources and services.